sensor_id;sensor_type;location;lat;lon;timestamp;temperature;humidity
19242;DHT22;9755;47.790;9.620;2023-07-08T00:00:12;19.20;66.30
19242;DHT22;9755;47.790;9.620;2023-07-08T00:02:40;19.20;66.90
19242;DHT22;9755;47.790;9.620;2023-07-08T00:05:08;19.10;68.20
19242;DHT22;9755;47.790;9.620;2023-07-08T00:07:37;19.00;68.20
19242;DHT22;9755;47.790;9.620;2023-07-08T00:10:12;19.00;68.40
19242;DHT22;9755;47.790;9.620;2023-07-08T00:12:40;18.90;69.20
19242;DHT22;9755;47.790;9.620;2023-07-08T00:15:08;18.90;69.90
19242;DHT22;9755;47.790;9.620;2023-07-08T00:17:35;18.90;69.10
19242;DHT22;9755;47.790;9.620;2023-07-08T00:20:12;18.90;69.20
19242;DHT22;9755;47.790;9.620;2023-07-08T00:22:42;18.90;69.60
19242;DHT22;9755;47.790;9.620;2023-07-08T00:25:12;18.80;70.50
19242;DHT22;9755;47.790;9.620;2023-07-08T00:27:39;18.80;71.50
19242;DHT22;9755;47.790;9.620;2023-07-08T00:30:20;18.80;71.50
19242;DHT22;9755;47.790;9.620;2023-07-08T00:32:47;18.80;71.90
19242;DHT22;9755;47.790;9.620;2023-07-08T00:35:20;18.80;72.60
19242;DHT22;9755;47.790;9.620;2023-07-08T00:37:49;18.80;73.00
19242;DHT22;9755;47.790;9.620;2023-07-08T00:40:20;18.80;74.00
19242;DHT22;9755;47.790;9.620;2023-07-08T00:42:48;18.70;74.10
19242;DHT22;9755;47.790;9.620;2023-07-08T00:45:37;18.70;75.10
19242;DHT22;9755;47.790;9.620;2023-07-08T00:48:15;18.50;78.50
19242;DHT22;9755;47.790;9.620;2023-07-08T00:50:42;18.30;82.20
19242;DHT22;9755;47.790;9.620;2023-07-08T00:53:26;18.20;84.70
19242;DHT22;9755;47.790;9.620;2023-07-08T00:55:57;18.00;87.50
19242;DHT22;9755;47.790;9.620;2023-07-08T00:58:25;17.90;90.20
19242;DHT22;9755;47.790;9.620;2023-07-08T01:00:54;17.80;92.50
19242;DHT22;9755;47.790;9.620;2023-07-08T01:03:23;17.80;93.60
19242;DHT22;9755;47.790;9.620;2023-07-08T01:05:54;17.90;93.60
19242;DHT22;9755;47.790;9.620;2023-07-08T01:08:27;17.90;94.10
19242;DHT22;9755;47.790;9.620;2023-07-08T01:11:00;18.00;94.20
19242;DHT22;9755;47.790;9.620;2023-07-08T01:13:30;18.00;93.90
19242;DHT22;9755;47.790;9.620;2023-07-08T01:15:59;18.00;94.40
19242;DHT22;9755;47.790;9.620;2023-07-08T01:18:27;18.00;94.90
19242;DHT22;9755;47.790;9.620;2023-07-08T01:20:55;17.90;95.30
19242;DHT22;9755;47.790;9.620;2023-07-08T01:23:23;17.80;95.60
19242;DHT22;9755;47.790;9.620;2023-07-08T01:25:51;17.80;96.20
19242;DHT22;9755;47.790;9.620;2023-07-08T01:28:18;17.70;96.30
19242;DHT22;9755;47.790;9.620;2023-07-08T01:30:46;17.70;98.00
19242;DHT22;9755;47.790;9.620;2023-07-08T01:33:19;17.60;98.90
19242;DHT22;9755;47.790;9.620;2023-07-08T01:35:48;17.60;99.20
19242;DHT22;9755;47.790;9.620;2023-07-08T01:38:18;17.50;99.70
19242;DHT22;9755;47.790;9.620;2023-07-08T01:40:51;17.50;99.70
19242;DHT22;9755;47.790;9.620;2023-07-08T01:43:18;17.80;98.20
19242;DHT22;9755;47.790;9.620;2023-07-08T01:45:46;18.10;95.70
19242;DHT22;9755;47.790;9.620;2023-07-08T01:48:17;18.50;94.30
19242;DHT22;9755;47.790;9.620;2023-07-08T01:50:48;18.70;92.50
19242;DHT22;9755;47.790;9.620;2023-07-08T01:53:20;18.80;90.10
19242;DHT22;9755;47.790;9.620;2023-07-08T01:55:48;18.90;88.50
19242;DHT22;9755;47.790;9.620;2023-07-08T01:58:16;19.00;90.50
19242;DHT22;9755;47.790;9.620;2023-07-08T02:00:43;19.10;85.90
19242;DHT22;9755;47.790;9.620;2023-07-08T02:03:10;19.30;83.80
19242;DHT22;9755;47.790;9.620;2023-07-08T02:05:37;19.40;80.40
19242;DHT22;9755;47.790;9.620;2023-07-08T02:08:04;19.80;77.70
19242;DHT22;9755;47.790;9.620;2023-07-08T02:10:31;19.90;75.90
19242;DHT22;9755;47.790;9.620;2023-07-08T02:12:59;20.20;74.70
19242;DHT22;9755;47.790;9.620;2023-07-08T02:15:27;20.20;75.80
19242;DHT22;9755;47.790;9.620;2023-07-08T02:17:54;20.10;76.80
19242;DHT22;9755;47.790;9.620;2023-07-08T02:20:21;20.10;76.60
19242;DHT22;9755;47.790;9.620;2023-07-08T02:22:49;20.10;76.40
19242;DHT22;9755;47.790;9.620;2023-07-08T02:25:16;20.00;75.80
19242;DHT22;9755;47.790;9.620;2023-07-08T02:27:43;20.10;75.30
19242;DHT22;9755;47.790;9.620;2023-07-08T02:30:10;20.10;74.30
19242;DHT22;9755;47.790;9.620;2023-07-08T02:32:39;20.10;74.60
19242;DHT22;9755;47.790;9.620;2023-07-08T02:35:07;20.50;68.80
19242;DHT22;9755;47.790;9.620;2023-07-08T02:37:35;20.70;66.80
19242;DHT22;9755;47.790;9.620;2023-07-08T02:40:02;20.80;65.50
19242;DHT22;9755;47.790;9.620;2023-07-08T02:42:29;20.70;66.00
19242;DHT22;9755;47.790;9.620;2023-07-08T02:44:56;20.70;67.80
19242;DHT22;9755;47.790;9.620;2023-07-08T02:47:23;20.80;66.40
19242;DHT22;9755;47.790;9.620;2023-07-08T02:49:51;20.90;67.80
19242;DHT22;9755;47.790;9.620;2023-07-08T02:52:20;20.80;68.50
19242;DHT22;9755;47.790;9.620;2023-07-08T02:54:47;20.70;69.20
19242;DHT22;9755;47.790;9.620;2023-07-08T02:57:14;20.60;71.10
19242;DHT22;9755;47.790;9.620;2023-07-08T02:59:41;20.40;72.30
19242;DHT22;9755;47.790;9.620;2023-07-08T03:02:08;20.10;74.10
19242;DHT22;9755;47.790;9.620;2023-07-08T03:04:36;20.00;76.00
19242;DHT22;9755;47.790;9.620;2023-07-08T03:07:07;19.90;78.20
19242;DHT22;9755;47.790;9.620;2023-07-08T03:09:37;19.70;80.40
19242;DHT22;9755;47.790;9.620;2023-07-08T03:12:05;19.50;85.00
19242;DHT22;9755;47.790;9.620;2023-07-08T03:14:32;19.40;90.00
19242;DHT22;9755;47.790;9.620;2023-07-08T03:16:59;19.20;90.60
19242;DHT22;9755;47.790;9.620;2023-07-08T03:19:26;19.50;85.70
19242;DHT22;9755;47.790;9.620;2023-07-08T03:21:54;19.60;85.60
19242;DHT22;9755;47.790;9.620;2023-07-08T03:24:22;19.60;85.30
19242;DHT22;9755;47.790;9.620;2023-07-08T03:26:49;19.60;85.00
19242;DHT22;9755;47.790;9.620;2023-07-08T03:29:20;19.60;85.00
19242;DHT22;9755;47.790;9.620;2023-07-08T03:31:47;19.60;85.90
19242;DHT22;9755;47.790;9.620;2023-07-08T03:34:15;19.60;86.60
19242;DHT22;9755;47.790;9.620;2023-07-08T03:36:44;19.70;81.40
19242;DHT22;9755;47.790;9.620;2023-07-08T03:39:14;19.90;81.20
19242;DHT22;9755;47.790;9.620;2023-07-08T03:41:43;19.90;80.20
19242;DHT22;9755;47.790;9.620;2023-07-08T03:44:10;19.90;81.80
19242;DHT22;9755;47.790;9.620;2023-07-08T03:46:38;19.80;81.90
19242;DHT22;9755;47.790;9.620;2023-07-08T03:49:05;19.80;83.50
19242;DHT22;9755;47.790;9.620;2023-07-08T03:51:35;19.80;83.60
19242;DHT22;9755;47.790;9.620;2023-07-08T03:54:03;19.70;85.00
19242;DHT22;9755;47.790;9.620;2023-07-08T03:56:31;19.70;81.50
19242;DHT22;9755;47.790;9.620;2023-07-08T03:59:00;19.80;81.30
19242;DHT22;9755;47.790;9.620;2023-07-08T04:01:27;19.70;82.30
19242;DHT22;9755;47.790;9.620;2023-07-08T04:03:55;19.70;83.50
19242;DHT22;9755;47.790;9.620;2023-07-08T04:06:23;19.80;82.20
19242;DHT22;9755;47.790;9.620;2023-07-08T04:08:50;19.80;81.80
19242;DHT22;9755;47.790;9.620;2023-07-08T04:11:19;19.80;84.10
19242;DHT22;9755;47.790;9.620;2023-07-08T04:13:47;19.80;84.20
19242;DHT22;9755;47.790;9.620;2023-07-08T04:16:18;19.80;83.50
19242;DHT22;9755;47.790;9.620;2023-07-08T04:18:45;19.80;84.10
19242;DHT22;9755;47.790;9.620;2023-07-08T04:21:12;19.80;83.90
19242;DHT22;9755;47.790;9.620;2023-07-08T04:23:39;19.90;84.10
19242;DHT22;9755;47.790;9.620;2023-07-08T04:26:08;19.90;84.40
19242;DHT22;9755;47.790;9.620;2023-07-08T04:28:36;19.90;86.30
19242;DHT22;9755;47.790;9.620;2023-07-08T04:31:04;20.00;85.70
19242;DHT22;9755;47.790;9.620;2023-07-08T04:33:32;20.00;86.30
19242;DHT22;9755;47.790;9.620;2023-07-08T04:35:59;20.00;86.70
19242;DHT22;9755;47.790;9.620;2023-07-08T04:38:27;19.90;87.40
19242;DHT22;9755;47.790;9.620;2023-07-08T04:40:54;19.90;88.60
19242;DHT22;9755;47.790;9.620;2023-07-08T04:43:22;19.90;88.90
19242;DHT22;9755;47.790;9.620;2023-07-08T04:45:55;19.90;88.90
19242;DHT22;9755;47.790;9.620;2023-07-08T04:48:23;19.90;90.10
19242;DHT22;9755;47.790;9.620;2023-07-08T04:50:52;19.90;90.20
19242;DHT22;9755;47.790;9.620;2023-07-08T04:53:20;19.90;89.80
19242;DHT22;9755;47.790;9.620;2023-07-08T04:55:51;19.90;90.80
19242;DHT22;9755;47.790;9.620;2023-07-08T04:58:19;19.80;90.30
19242;DHT22;9755;47.790;9.620;2023-07-08T05:00:47;19.90;90.50
19242;DHT22;9755;47.790;9.620;2023-07-08T05:03:14;19.90;90.40
19242;DHT22;9755;47.790;9.620;2023-07-08T05:05:41;19.90;92.00
19242;DHT22;9755;47.790;9.620;2023-07-08T05:08:11;19.90;92.40
19242;DHT22;9755;47.790;9.620;2023-07-08T05:10:39;19.90;93.00
19242;DHT22;9755;47.790;9.620;2023-07-08T05:13:06;19.90;92.60
19242;DHT22;9755;47.790;9.620;2023-07-08T05:15:33;19.90;92.90
19242;DHT22;9755;47.790;9.620;2023-07-08T05:18:01;19.90;93.30
19242;DHT22;9755;47.790;9.620;2023-07-08T05:20:28;19.90;94.50
19242;DHT22;9755;47.790;9.620;2023-07-08T05:22:56;19.90;94.50
19242;DHT22;9755;47.790;9.620;2023-07-08T05:25:25;19.90;95.10
19242;DHT22;9755;47.790;9.620;2023-07-08T05:27:53;19.90;94.30
19242;DHT22;9755;47.790;9.620;2023-07-08T05:30:20;19.80;95.60
19242;DHT22;9755;47.790;9.620;2023-07-08T05:32:47;19.90;95.50
19242;DHT22;9755;47.790;9.620;2023-07-08T05:35:14;19.80;96.00
19242;DHT22;9755;47.790;9.620;2023-07-08T05:37:41;19.90;96.10
19242;DHT22;9755;47.790;9.620;2023-07-08T05:40:12;19.90;95.40
19242;DHT22;9755;47.790;9.620;2023-07-08T05:42:41;20.00;96.20
19242;DHT22;9755;47.790;9.620;2023-07-08T05:45:08;20.10;95.30
19242;DHT22;9755;47.790;9.620;2023-07-08T05:47:36;20.20;95.70
19242;DHT22;9755;47.790;9.620;2023-07-08T05:50:04;20.40;96.00
19242;DHT22;9755;47.790;9.620;2023-07-08T05:52:31;20.40;94.90
19242;DHT22;9755;47.790;9.620;2023-07-08T05:54:58;20.40;95.20
19242;DHT22;9755;47.790;9.620;2023-07-08T05:57:25;20.60;94.70
19242;DHT22;9755;47.790;9.620;2023-07-08T05:59:53;20.70;94.90
19242;DHT22;9755;47.790;9.620;2023-07-08T06:02:20;20.80;94.20
19242;DHT22;9755;47.790;9.620;2023-07-08T06:04:50;21.00;93.40
19242;DHT22;9755;47.790;9.620;2023-07-08T06:07:17;21.00;91.20
19242;DHT22;9755;47.790;9.620;2023-07-08T06:09:45;21.10;90.90
19242;DHT22;9755;47.790;9.620;2023-07-08T06:12:12;21.10;91.40
19242;DHT22;9755;47.790;9.620;2023-07-08T06:14:39;21.40;90.70
19242;DHT22;9755;47.790;9.620;2023-07-08T06:17:08;21.60;90.20
19242;DHT22;9755;47.790;9.620;2023-07-08T06:19:35;21.80;88.00
19242;DHT22;9755;47.790;9.620;2023-07-08T06:22:03;21.80;86.70
19242;DHT22;9755;47.790;9.620;2023-07-08T06:24:30;22.00;86.80
19242;DHT22;9755;47.790;9.620;2023-07-08T06:26:57;22.20;85.00
19242;DHT22;9755;47.790;9.620;2023-07-08T06:29:24;22.60;84.40
19242;DHT22;9755;47.790;9.620;2023-07-08T06:31:51;22.90;82.20
19242;DHT22;9755;47.790;9.620;2023-07-08T06:34:20;23.10;81.70
19242;DHT22;9755;47.790;9.620;2023-07-08T06:36:49;23.20;80.70
19242;DHT22;9755;47.790;9.620;2023-07-08T06:39:16;23.30;81.20
19242;DHT22;9755;47.790;9.620;2023-07-08T06:41:44;23.40;81.50
19242;DHT22;9755;47.790;9.620;2023-07-08T06:44:11;23.00;82.40
19242;DHT22;9755;47.790;9.620;2023-07-08T06:46:39;22.60;86.50
19242;DHT22;9755;47.790;9.620;2023-07-08T06:49:06;22.50;88.50
19242;DHT22;9755;47.790;9.620;2023-07-08T06:51:36;22.70;88.30
19242;DHT22;9755;47.790;9.620;2023-07-08T06:54:03;23.00;86.30
19242;DHT22;9755;47.790;9.620;2023-07-08T06:56:37;23.30;86.00
19242;DHT22;9755;47.790;9.620;2023-07-08T06:59:05;23.90;83.00
19242;DHT22;9755;47.790;9.620;2023-07-08T07:01:32;24.40;78.90
19242;DHT22;9755;47.790;9.620;2023-07-08T07:03:59;24.30;77.50
19242;DHT22;9755;47.790;9.620;2023-07-08T07:06:27;24.00;78.80
19242;DHT22;9755;47.790;9.620;2023-07-08T07:08:55;23.90;79.50
19242;DHT22;9755;47.790;9.620;2023-07-08T07:11:22;23.60;81.20
19242;DHT22;9755;47.790;9.620;2023-07-08T07:13:49;23.60;82.50
19242;DHT22;9755;47.790;9.620;2023-07-08T07:16:16;23.50;83.20
19242;DHT22;9755;47.790;9.620;2023-07-08T07:18:43;23.40;84.20
19242;DHT22;9755;47.790;9.620;2023-07-08T07:21:11;23.40;85.10
19242;DHT22;9755;47.790;9.620;2023-07-08T07:23:38;23.80;84.40
19242;DHT22;9755;47.790;9.620;2023-07-08T07:26:06;24.30;80.90
19242;DHT22;9755;47.790;9.620;2023-07-08T07:28:33;24.60;79.60
19242;DHT22;9755;47.790;9.620;2023-07-08T07:31:00;24.60;78.80
19242;DHT22;9755;47.790;9.620;2023-07-08T07:33:28;24.60;77.10
19242;DHT22;9755;47.790;9.620;2023-07-08T07:35:55;24.60;75.40
19242;DHT22;9755;47.790;9.620;2023-07-08T07:38:22;24.50;72.80
19242;DHT22;9755;47.790;9.620;2023-07-08T07:40:54;24.40;72.70
19242;DHT22;9755;47.790;9.620;2023-07-08T07:43:23;25.40;68.80
19242;DHT22;9755;47.790;9.620;2023-07-08T07:45:50;26.00;65.70
19242;DHT22;9755;47.790;9.620;2023-07-08T07:48:18;25.90;64.50
19242;DHT22;9755;47.790;9.620;2023-07-08T07:50:46;25.30;65.10
19242;DHT22;9755;47.790;9.620;2023-07-08T07:53:13;24.40;68.70
19242;DHT22;9755;47.790;9.620;2023-07-08T07:55:40;24.20;71.10
19242;DHT22;9755;47.790;9.620;2023-07-08T07:58:07;24.00;73.10
19242;DHT22;9755;47.790;9.620;2023-07-08T08:00:38;24.00;73.90
19242;DHT22;9755;47.790;9.620;2023-07-08T08:03:05;24.20;72.90
19242;DHT22;9755;47.790;9.620;2023-07-08T08:05:32;24.30;72.20
19242;DHT22;9755;47.790;9.620;2023-07-08T08:07:59;24.40;72.10
19242;DHT22;9755;47.790;9.620;2023-07-08T08:10:28;24.30;71.50
19242;DHT22;9755;47.790;9.620;2023-07-08T08:12:55;24.00;72.20
19242;DHT22;9755;47.790;9.620;2023-07-08T08:15:23;24.10;72.20
19242;DHT22;9755;47.790;9.620;2023-07-08T08:17:51;24.30;73.00
19242;DHT22;9755;47.790;9.620;2023-07-08T08:20:19;24.20;72.60
19242;DHT22;9755;47.790;9.620;2023-07-08T08:22:46;24.20;73.80
19242;DHT22;9755;47.790;9.620;2023-07-08T08:25:14;24.00;74.30
19242;DHT22;9755;47.790;9.620;2023-07-08T08:27:41;23.60;75.40
19242;DHT22;9755;47.790;9.620;2023-07-08T08:30:11;23.60;76.00
19242;DHT22;9755;47.790;9.620;2023-07-08T08:32:38;23.50;77.20
19242;DHT22;9755;47.790;9.620;2023-07-08T08:35:07;23.60;76.80
19242;DHT22;9755;47.790;9.620;2023-07-08T08:37:34;23.40;75.70
19242;DHT22;9755;47.790;9.620;2023-07-08T08:40:01;23.30;77.60
19242;DHT22;9755;47.790;9.620;2023-07-08T08:42:33;23.40;76.60
19242;DHT22;9755;47.790;9.620;2023-07-08T08:45:03;23.50;75.40
19242;DHT22;9755;47.790;9.620;2023-07-08T08:47:36;23.70;74.80
19242;DHT22;9755;47.790;9.620;2023-07-08T08:50:20;23.60;71.10
19242;DHT22;9755;47.790;9.620;2023-07-08T08:52:50;23.90;70.80
19242;DHT22;9755;47.790;9.620;2023-07-08T08:55:17;24.10;69.10
19242;DHT22;9755;47.790;9.620;2023-07-08T08:57:48;24.20;68.10
19242;DHT22;9755;47.790;9.620;2023-07-08T09:00:23;24.60;66.30
19242;DHT22;9755;47.790;9.620;2023-07-08T09:02:57;25.10;63.70
19242;DHT22;9755;47.790;9.620;2023-07-08T09:05:27;24.90;61.80
19242;DHT22;9755;47.790;9.620;2023-07-08T09:08:02;24.90;61.60
19242;DHT22;9755;47.790;9.620;2023-07-08T09:10:45;24.90;61.40
19242;DHT22;9755;47.790;9.620;2023-07-08T09:13:18;25.20;60.80
19242;DHT22;9755;47.790;9.620;2023-07-08T09:15:50;25.90;57.50
19242;DHT22;9755;47.790;9.620;2023-07-08T09:18:38;26.20;56.50
19242;DHT22;9755;47.790;9.620;2023-07-08T09:21:19;26.60;56.50
19242;DHT22;9755;47.790;9.620;2023-07-08T09:23:49;28.40;51.30
19242;DHT22;9755;47.790;9.620;2023-07-08T09:26:22;30.00;45.20
19242;DHT22;9755;47.790;9.620;2023-07-08T09:28:50;30.50;38.10
19242;DHT22;9755;47.790;9.620;2023-07-08T09:31:22;31.30;36.20
19242;DHT22;9755;47.790;9.620;2023-07-08T09:33:52;31.10;33.50
19242;DHT22;9755;47.790;9.620;2023-07-08T09:36:23;32.30;30.50
19242;DHT22;9755;47.790;9.620;2023-07-08T09:38:51;33.30;27.40
19242;DHT22;9755;47.790;9.620;2023-07-08T09:41:30;33.70;25.40
19242;DHT22;9755;47.790;9.620;2023-07-08T09:44:14;34.80;22.60
19242;DHT22;9755;47.790;9.620;2023-07-08T09:46:45;35.50;21.30
19242;DHT22;9755;47.790;9.620;2023-07-08T09:49:22;35.60;19.30
19242;DHT22;9755;47.790;9.620;2023-07-08T09:51:51;36.20;16.50
19242;DHT22;9755;47.790;9.620;2023-07-08T09:54:19;35.80;15.10
19242;DHT22;9755;47.790;9.620;2023-07-08T09:56:55;35.70;12.60
19242;DHT22;9755;47.790;9.620;2023-07-08T09:59:29;33.90;13.50
19242;DHT22;9755;47.790;9.620;2023-07-08T10:02:00;33.80;14.70
19242;DHT22;9755;47.790;9.620;2023-07-08T10:04:28;35.30;14.00
19242;DHT22;9755;47.790;9.620;2023-07-08T10:06:56;35.60;12.00
19242;DHT22;9755;47.790;9.620;2023-07-08T10:09:26;35.90;13.30
19242;DHT22;9755;47.790;9.620;2023-07-08T10:11:58;35.40;12.00
19242;DHT22;9755;47.790;9.620;2023-07-08T10:14:30;34.60;12.40
19242;DHT22;9755;47.790;9.620;2023-07-08T10:17:00;34.70;12.80
19242;DHT22;9755;47.790;9.620;2023-07-08T10:19:27;34.50;13.30
19242;DHT22;9755;47.790;9.620;2023-07-08T10:22:09;34.60;13.40
19242;DHT22;9755;47.790;9.620;2023-07-08T10:27:47;33.40;12.90
19242;DHT22;9755;47.790;9.620;2023-07-08T10:30:22;33.40;13.70
19242;DHT22;9755;47.790;9.620;2023-07-08T10:33:12;34.20;15.00
19242;DHT22;9755;47.790;9.620;2023-07-08T10:35:46;35.00;12.90
19242;DHT22;9755;47.790;9.620;2023-07-08T10:38:31;36.50;12.50
19242;DHT22;9755;47.790;9.620;2023-07-08T10:41:03;36.80;9.70
19242;DHT22;9755;47.790;9.620;2023-07-08T10:43:44;37.10;10.10
19242;DHT22;9755;47.790;9.620;2023-07-08T10:46:22;37.60;10.20
19242;DHT22;9755;47.790;9.620;2023-07-08T10:49:08;37.10;8.80
19242;DHT22;9755;47.790;9.620;2023-07-08T10:51:47;36.80;9.50
19242;DHT22;9755;47.790;9.620;2023-07-08T10:57:34;36.40;8.50
19242;DHT22;9755;47.790;9.620;2023-07-08T11:00:16;36.30;7.60
19242;DHT22;9755;47.790;9.620;2023-07-08T11:03:19;36.10;6.40
19242;DHT22;9755;47.790;9.620;2023-07-08T11:05:58;35.70;6.40
19242;DHT22;9755;47.790;9.620;2023-07-08T11:08:31;35.30;7.30
19242;DHT22;9755;47.790;9.620;2023-07-08T11:11:05;35.70;7.70
19242;DHT22;9755;47.790;9.620;2023-07-08T11:13:36;35.70;10.20
19242;DHT22;9755;47.790;9.620;2023-07-08T11:16:23;35.70;8.70
19242;DHT22;9755;47.790;9.620;2023-07-08T11:18:54;36.00;8.10
19242;DHT22;9755;47.790;9.620;2023-07-08T11:21:27;35.60;8.50
19242;DHT22;9755;47.790;9.620;2023-07-08T11:24:02;35.00;9.30
19242;DHT22;9755;47.790;9.620;2023-07-08T11:26:33;34.70;9.50
19242;DHT22;9755;47.790;9.620;2023-07-08T11:29:11;35.30;10.00
19242;DHT22;9755;47.790;9.620;2023-07-08T11:31:40;36.40;8.90
19242;DHT22;9755;47.790;9.620;2023-07-08T11:34:08;36.30;9.10
19242;DHT22;9755;47.790;9.620;2023-07-08T11:36:38;36.50;8.40
19242;DHT22;9755;47.790;9.620;2023-07-08T11:39:26;36.90;8.40
19242;DHT22;9755;47.790;9.620;2023-07-08T11:42:04;36.90;8.00
19242;DHT22;9755;47.790;9.620;2023-07-08T11:44:34;35.70;6.90
19242;DHT22;9755;47.790;9.620;2023-07-08T11:47:01;35.20;6.20
19242;DHT22;9755;47.790;9.620;2023-07-08T11:49:28;36.00;7.70
19242;DHT22;9755;47.790;9.620;2023-07-08T11:51:57;36.50;7.90
19242;DHT22;9755;47.790;9.620;2023-07-08T11:54:28;35.60;4.20
19242;DHT22;9755;47.790;9.620;2023-07-08T11:57:00;35.50;5.10
19242;DHT22;9755;47.790;9.620;2023-07-08T11:59:32;36.30;5.20
19242;DHT22;9755;47.790;9.620;2023-07-08T12:02:03;37.40;5.70
19242;DHT22;9755;47.790;9.620;2023-07-08T12:04:32;37.60;2.30
19242;DHT22;9755;47.790;9.620;2023-07-08T12:07:12;37.20;3.50
19242;DHT22;9755;47.790;9.620;2023-07-08T12:09:46;38.00;3.30
19242;DHT22;9755;47.790;9.620;2023-07-08T12:12:31;37.60;3.80
19242;DHT22;9755;47.790;9.620;2023-07-08T12:15:08;37.50;3.30
19242;DHT22;9755;47.790;9.620;2023-07-08T12:17:38;36.90;1.90
19242;DHT22;9755;47.790;9.620;2023-07-08T12:20:15;36.00;2.40
19242;DHT22;9755;47.790;9.620;2023-07-08T12:22:43;35.50;3.50
19242;DHT22;9755;47.790;9.620;2023-07-08T12:25:13;34.70;3.30
19242;DHT22;9755;47.790;9.620;2023-07-08T12:27:44;34.40;4.30
19242;DHT22;9755;47.790;9.620;2023-07-08T12:30:13;34.80;4.20
19242;DHT22;9755;47.790;9.620;2023-07-08T12:32:40;35.10;4.50
19242;DHT22;9755;47.790;9.620;2023-07-08T12:35:21;35.40;3.60
19242;DHT22;9755;47.790;9.620;2023-07-08T12:37:50;35.80;3.30
19242;DHT22;9755;47.790;9.620;2023-07-08T12:40:17;36.10;3.40
19242;DHT22;9755;47.790;9.620;2023-07-08T12:42:46;36.40;3.70
19242;DHT22;9755;47.790;9.620;2023-07-08T12:45:15;36.90;3.00
19242;DHT22;9755;47.790;9.620;2023-07-08T12:47:43;37.20;2.90
19242;DHT22;9755;47.790;9.620;2023-07-08T12:50:10;37.80;1.90
19242;DHT22;9755;47.790;9.620;2023-07-08T12:52:38;38.40;1.00
19242;DHT22;9755;47.790;9.620;2023-07-08T12:55:08;37.40;1.00
19242;DHT22;9755;47.790;9.620;2023-07-08T12:57:36;38.00;2.20
19242;DHT22;9755;47.790;9.620;2023-07-08T13:00:08;38.20;1.00
19242;DHT22;9755;47.790;9.620;2023-07-08T13:02:38;36.90;1.00
19242;DHT22;9755;47.790;9.620;2023-07-08T13:05:06;36.10;1.00
19242;DHT22;9755;47.790;9.620;2023-07-08T13:07:36;35.50;1.00
19242;DHT22;9755;47.790;9.620;2023-07-08T13:10:05;34.60;1.40
19242;DHT22;9755;47.790;9.620;2023-07-08T13:12:35;34.80;2.50
19242;DHT22;9755;47.790;9.620;2023-07-08T13:15:10;35.50;2.40
19242;DHT22;9755;47.790;9.620;2023-07-08T13:17:40;36.40;3.50
19242;DHT22;9755;47.790;9.620;2023-07-08T13:20:13;37.40;3.30
19242;DHT22;9755;47.790;9.620;2023-07-08T13:22:41;37.50;1.40
19242;DHT22;9755;47.790;9.620;2023-07-08T13:25:14;37.70;1.00
19242;DHT22;9755;47.790;9.620;2023-07-08T13:27:54;36.70;1.00
19242;DHT22;9755;47.790;9.620;2023-07-08T13:30:25;37.20;1.00
19242;DHT22;9755;47.790;9.620;2023-07-08T13:32:52;37.40;1.00
19242;DHT22;9755;47.790;9.620;2023-07-08T13:35:24;37.70;1.00
19242;DHT22;9755;47.790;9.620;2023-07-08T13:37:52;36.40;1.00
19242;DHT22;9755;47.790;9.620;2023-07-08T13:40:20;36.20;1.00
19242;DHT22;9755;47.790;9.620;2023-07-08T13:42:49;35.60;1.40
19242;DHT22;9755;47.790;9.620;2023-07-08T13:45:21;35.60;1.00
19242;DHT22;9755;47.790;9.620;2023-07-08T13:48:00;35.20;1.30
19242;DHT22;9755;47.790;9.620;2023-07-08T13:50:30;35.50;1.90
19242;DHT22;9755;47.790;9.620;2023-07-08T13:52:59;35.90;1.30
19242;DHT22;9755;47.790;9.620;2023-07-08T13:55:26;35.60;1.00
19242;DHT22;9755;47.790;9.620;2023-07-08T13:57:59;35.40;1.00
19242;DHT22;9755;47.790;9.620;2023-07-08T14:00:29;35.50;1.00
19242;DHT22;9755;47.790;9.620;2023-07-08T14:02:59;35.20;1.00
19242;DHT22;9755;47.790;9.620;2023-07-08T14:05:26;35.20;1.00
19242;DHT22;9755;47.790;9.620;2023-07-08T14:07:53;35.40;1.00
19242;DHT22;9755;47.790;9.620;2023-07-08T14:10:20;36.00;1.00
19242;DHT22;9755;47.790;9.620;2023-07-08T14:12:47;36.00;1.00
19242;DHT22;9755;47.790;9.620;2023-07-08T14:15:14;35.60;1.00
19242;DHT22;9755;47.790;9.620;2023-07-08T14:17:41;35.60;1.00
19242;DHT22;9755;47.790;9.620;2023-07-08T14:20:14;35.70;1.00
19242;DHT22;9755;47.790;9.620;2023-07-08T14:22:41;36.00;1.00
19242;DHT22;9755;47.790;9.620;2023-07-08T14:25:09;35.60;1.00
19242;DHT22;9755;47.790;9.620;2023-07-08T14:27:37;35.50;1.00
19242;DHT22;9755;47.790;9.620;2023-07-08T14:30:05;35.50;1.00
19242;DHT22;9755;47.790;9.620;2023-07-08T14:32:32;35.50;1.00
19242;DHT22;9755;47.790;9.620;2023-07-08T14:35:08;35.40;1.00
19242;DHT22;9755;47.790;9.620;2023-07-08T14:37:39;35.40;1.00
19242;DHT22;9755;47.790;9.620;2023-07-08T14:40:19;35.40;1.00
19242;DHT22;9755;47.790;9.620;2023-07-08T14:42:46;35.40;1.00
19242;DHT22;9755;47.790;9.620;2023-07-08T14:45:14;35.30;1.00
19242;DHT22;9755;47.790;9.620;2023-07-08T14:47:41;35.10;1.00
19242;DHT22;9755;47.790;9.620;2023-07-08T14:50:13;34.30;1.00
19242;DHT22;9755;47.790;9.620;2023-07-08T14:52:41;33.70;1.00
19242;DHT22;9755;47.790;9.620;2023-07-08T14:55:09;33.90;1.00
19242;DHT22;9755;47.790;9.620;2023-07-08T14:57:42;34.30;1.00
19242;DHT22;9755;47.790;9.620;2023-07-08T15:00:12;33.20;1.00
19242;DHT22;9755;47.790;9.620;2023-07-08T15:02:41;33.40;1.00
19242;DHT22;9755;47.790;9.620;2023-07-08T15:05:14;33.10;1.00
19242;DHT22;9755;47.790;9.620;2023-07-08T15:07:43;33.50;1.00
19242;DHT22;9755;47.790;9.620;2023-07-08T15:10:11;33.60;1.00
19242;DHT22;9755;47.790;9.620;2023-07-08T15:12:38;34.00;1.00
19242;DHT22;9755;47.790;9.620;2023-07-08T15:15:14;34.10;1.00
19242;DHT22;9755;47.790;9.620;2023-07-08T15:17:41;34.60;1.00
19242;DHT22;9755;47.790;9.620;2023-07-08T15:20:13;34.70;1.00
19242;DHT22;9755;47.790;9.620;2023-07-08T15:22:45;34.90;1.00
19242;DHT22;9755;47.790;9.620;2023-07-08T15:25:13;35.00;1.00
19242;DHT22;9755;47.790;9.620;2023-07-08T15:27:43;35.50;1.00
19242;DHT22;9755;47.790;9.620;2023-07-08T15:30:16;35.10;1.00
19242;DHT22;9755;47.790;9.620;2023-07-08T15:32:44;34.60;1.00
19242;DHT22;9755;47.790;9.620;2023-07-08T15:35:15;33.70;1.00
19242;DHT22;9755;47.790;9.620;2023-07-08T15:37:44;33.20;1.00
19242;DHT22;9755;47.790;9.620;2023-07-08T15:40:13;33.40;1.00
19242;DHT22;9755;47.790;9.620;2023-07-08T15:42:41;33.20;1.00
19242;DHT22;9755;47.790;9.620;2023-07-08T15:45:13;32.50;1.00
19242;DHT22;9755;47.790;9.620;2023-07-08T15:47:41;32.80;1.00
19242;DHT22;9755;47.790;9.620;2023-07-08T15:50:11;33.00;1.00
19242;DHT22;9755;47.790;9.620;2023-07-08T15:52:38;32.80;1.00
19242;DHT22;9755;47.790;9.620;2023-07-08T15:55:08;33.20;1.00
19242;DHT22;9755;47.790;9.620;2023-07-08T15:57:41;33.30;1.00
19242;DHT22;9755;47.790;9.620;2023-07-08T16:00:17;34.00;1.00
19242;DHT22;9755;47.790;9.620;2023-07-08T16:02:48;34.30;1.00
19242;DHT22;9755;47.790;9.620;2023-07-08T16:05:16;34.20;1.00
19242;DHT22;9755;47.790;9.620;2023-07-08T16:07:45;34.70;1.00
19242;DHT22;9755;47.790;9.620;2023-07-08T16:10:13;34.80;1.00
19242;DHT22;9755;47.790;9.620;2023-07-08T16:12:41;34.70;1.00
19242;DHT22;9755;47.790;9.620;2023-07-08T16:15:13;34.60;1.00